sensor_id;sensor_type;location;lat;lon;timestamp;temperature;humidity
10417;DHT22;62605;49.432;8.680;2023-03-16T00:04:37;3.00;99.90
10417;DHT22;62605;49.432;8.680;2023-03-16T00:07:40;3.10;99.90
10417;DHT22;62605;49.432;8.680;2023-03-16T00:10:22;3.10;99.90
10417;DHT22;62605;49.432;8.680;2023-03-16T00:13:05;3.10;99.90
10417;DHT22;62605;49.432;8.680;2023-03-16T00:16:22;3.10;99.90
10417;DHT22;62605;49.432;8.680;2023-03-16T00:19:13;3.10;99.90
10417;DHT22;62605;49.432;8.680;2023-03-16T00:22:00;3.10;99.90
10417;DHT22;62605;49.432;8.680;2023-03-16T00:24:29;3.10;99.90
10417;DHT22;62605;49.432;8.680;2023-03-16T00:27:08;3.10;99.90
10417;DHT22;62605;49.432;8.680;2023-03-16T00:29:54;3.10;99.90
10417;DHT22;62605;49.432;8.680;2023-03-16T00:32:43;3.00;99.90
10417;DHT22;62605;49.432;8.680;2023-03-16T00:35:11;3.10;99.90
10417;DHT22;62605;49.432;8.680;2023-03-16T00:38:06;3.00;99.90
10417;DHT22;62605;49.432;8.680;2023-03-16T00:43:28;3.00;99.90
10417;DHT22;62605;49.432;8.680;2023-03-16T00:46:26;3.10;99.90
10417;DHT22;62605;49.432;8.680;2023-03-16T00:49:18;3.10;99.90
10417;DHT22;62605;49.432;8.680;2023-03-16T00:52:00;3.10;99.90
10417;DHT22;62605;49.432;8.680;2023-03-16T00:54:47;3.10;99.90
10417;DHT22;62605;49.432;8.680;2023-03-16T00:57:29;3.10;99.90
10417;DHT22;62605;49.432;8.680;2023-03-16T01:00:41;3.10;99.90
10417;DHT22;62605;49.432;8.680;2023-03-16T01:03:27;3.20;99.90
10417;DHT22;62605;49.432;8.680;2023-03-16T01:06:11;3.10;99.90
10417;DHT22;62605;49.432;8.680;2023-03-16T01:08:47;3.20;99.90
10417;DHT22;62605;49.432;8.680;2023-03-16T01:11:40;3.20;99.90
10417;DHT22;62605;49.432;8.680;2023-03-16T01:19:36;3.20;99.90
10417;DHT22;62605;49.432;8.680;2023-03-16T01:22:20;3.00;99.90
10417;DHT22;62605;49.432;8.680;2023-03-16T01:25:02;3.10;99.90
10417;DHT22;62605;49.432;8.680;2023-03-16T01:33:57;3.20;99.90
10417;DHT22;62605;49.432;8.680;2023-03-16T01:36:29;3.20;99.90
10417;DHT22;62605;49.432;8.680;2023-03-16T01:39:15;3.10;99.90
10417;DHT22;62605;49.432;8.680;2023-03-16T01:42:02;3.20;99.90
10417;DHT22;62605;49.432;8.680;2023-03-16T01:44:54;3.20;99.90
10417;DHT22;62605;49.432;8.680;2023-03-16T01:47:36;3.20;99.90
10417;DHT22;62605;49.432;8.680;2023-03-16T01:53:38;3.30;99.90
10417;DHT22;62605;49.432;8.680;2023-03-16T01:56:26;3.20;99.90
10417;DHT22;62605;49.432;8.680;2023-03-16T01:59:03;3.20;99.90
10417;DHT22;62605;49.432;8.680;2023-03-16T02:01:46;3.20;99.90
10417;DHT22;62605;49.432;8.680;2023-03-16T02:04:52;3.20;99.90
10417;DHT22;62605;49.432;8.680;2023-03-16T02:07:39;3.20;99.90
10417;DHT22;62605;49.432;8.680;2023-03-16T02:19:52;3.30;99.90
10417;DHT22;62605;49.432;8.680;2023-03-16T02:22:40;3.30;99.90
10417;DHT22;62605;49.432;8.680;2023-03-16T02:25:42;3.30;99.90
10417;DHT22;62605;49.432;8.680;2023-03-16T02:28:35;3.20;99.90
10417;DHT22;62605;49.432;8.680;2023-03-16T02:31:20;3.20;99.90
10417;DHT22;62605;49.432;8.680;2023-03-16T02:33:58;3.30;99.90
10417;DHT22;62605;49.432;8.680;2023-03-16T02:36:36;3.30;99.90
10417;DHT22;62605;49.432;8.680;2023-03-16T02:39:12;3.20;99.90
10417;DHT22;62605;49.432;8.680;2023-03-16T02:41:59;3.20;99.90
10417;DHT22;62605;49.432;8.680;2023-03-16T02:44:42;3.30;99.90
10417;DHT22;62605;49.432;8.680;2023-03-16T02:47:54;3.10;99.90
10417;DHT22;62605;49.432;8.680;2023-03-16T02:50:30;3.10;99.90
10417;DHT22;62605;49.432;8.680;2023-03-16T02:53:14;3.20;99.90
10417;DHT22;62605;49.432;8.680;2023-03-16T02:55:54;3.20;99.90
10417;DHT22;62605;49.432;8.680;2023-03-16T02:58:44;3.20;99.90
10417;DHT22;62605;49.432;8.680;2023-03-16T03:01:27;3.20;99.90
10417;DHT22;62605;49.432;8.680;2023-03-16T03:10:46;3.20;99.90
10417;DHT22;62605;49.432;8.680;2023-03-16T03:13:36;3.20;99.90
10417;DHT22;62605;49.432;8.680;2023-03-16T03:16:26;3.10;99.90
10417;DHT22;62605;49.432;8.680;2023-03-16T03:19:01;3.30;99.90
10417;DHT22;62605;49.432;8.680;2023-03-16T03:21:45;3.20;99.90
10417;DHT22;62605;49.432;8.680;2023-03-16T03:24:25;3.30;99.90
10417;DHT22;62605;49.432;8.680;2023-03-16T03:27:04;3.40;99.90
10417;DHT22;62605;49.432;8.680;2023-03-16T03:29:34;3.40;99.90
10417;DHT22;62605;49.432;8.680;2023-03-16T03:32:14;3.30;99.90
10417;DHT22;62605;49.432;8.680;2023-03-16T03:34:58;3.30;99.90
10417;DHT22;62605;49.432;8.680;2023-03-16T03:37:30;3.40;99.90
10417;DHT22;62605;49.432;8.680;2023-03-16T03:40:14;3.40;99.90
10417;DHT22;62605;49.432;8.680;2023-03-16T03:46:01;3.40;99.90
10417;DHT22;62605;49.432;8.680;2023-03-16T03:48:35;3.40;99.90
10417;DHT22;62605;49.432;8.680;2023-03-16T03:51:34;3.40;99.90
10417;DHT22;62605;49.432;8.680;2023-03-16T03:54:32;3.40;99.90
10417;DHT22;62605;49.432;8.680;2023-03-16T03:57:15;3.30;99.90
10417;DHT22;62605;49.432;8.680;2023-03-16T04:00:25;3.30;99.90
10417;DHT22;62605;49.432;8.680;2023-03-16T04:15:52;3.50;99.90
10417;DHT22;62605;49.432;8.680;2023-03-16T04:18:51;3.50;99.90
10417;DHT22;62605;49.432;8.680;2023-03-16T04:21:36;3.50;99.90
10417;DHT22;62605;49.432;8.680;2023-03-16T04:27:15;3.40;99.90
10417;DHT22;62605;49.432;8.680;2023-03-16T04:29:57;3.50;99.90
10417;DHT22;62605;49.432;8.680;2023-03-16T04:32:43;3.40;99.90
10417;DHT22;62605;49.432;8.680;2023-03-16T04:35:27;3.30;99.90
10417;DHT22;62605;49.432;8.680;2023-03-16T04:38:28;3.30;99.90
10417;DHT22;62605;49.432;8.680;2023-03-16T04:41:15;3.30;99.90
10417;DHT22;62605;49.432;8.680;2023-03-16T04:46:36;3.30;99.90
10417;DHT22;62605;49.432;8.680;2023-03-16T04:49:21;3.30;99.90
10417;DHT22;62605;49.432;8.680;2023-03-16T04:52:08;3.30;99.90
10417;DHT22;62605;49.432;8.680;2023-03-16T04:57:01;3.40;99.90
10417;DHT22;62605;49.432;8.680;2023-03-16T04:59:37;3.40;99.90
10417;DHT22;62605;49.432;8.680;2023-03-16T05:02:26;3.20;99.90
10417;DHT22;62605;49.432;8.680;2023-03-16T05:05:38;3.30;99.90
10417;DHT22;62605;49.432;8.680;2023-03-16T05:08:26;3.40;99.90
10417;DHT22;62605;49.432;8.680;2023-03-16T05:11:11;3.40;99.90
10417;DHT22;62605;49.432;8.680;2023-03-16T05:13:53;3.40;99.90
10417;DHT22;62605;49.432;8.680;2023-03-16T05:16:25;3.40;99.90
10417;DHT22;62605;49.432;8.680;2023-03-16T05:19:07;3.50;99.90
10417;DHT22;62605;49.432;8.680;2023-03-16T05:21:56;3.50;99.90
10417;DHT22;62605;49.432;8.680;2023-03-16T05:32:32;3.50;99.90
10417;DHT22;62605;49.432;8.680;2023-03-16T05:35:16;3.30;99.90
10417;DHT22;62605;49.432;8.680;2023-03-16T05:38:15;3.30;99.90
10417;DHT22;62605;49.432;8.680;2023-03-16T05:40:48;3.30;99.90
10417;DHT22;62605;49.432;8.680;2023-03-16T05:43:29;3.30;99.90
10417;DHT22;62605;49.432;8.680;2023-03-16T05:46:19;3.30;99.90
10417;DHT22;62605;49.432;8.680;2023-03-16T05:49:01;3.30;99.90
10417;DHT22;62605;49.432;8.680;2023-03-16T05:51:42;3.50;99.90
10417;DHT22;62605;49.432;8.680;2023-03-16T05:54:19;3.40;99.90
10417;DHT22;62605;49.432;8.680;2023-03-16T05:57:11;3.20;99.90
10417;DHT22;62605;49.432;8.680;2023-03-16T05:59:53;3.30;99.90
10417;DHT22;62605;49.432;8.680;2023-03-16T06:23:28;3.30;99.90
10417;DHT22;62605;49.432;8.680;2023-03-16T06:39:21;3.60;99.90
10417;DHT22;62605;49.432;8.680;2023-03-16T06:46:00;3.70;99.90
10417;DHT22;62605;49.432;8.680;2023-03-16T06:48:46;3.90;99.90
10417;DHT22;62605;49.432;8.680;2023-03-16T06:57:50;3.90;99.90
10417;DHT22;62605;49.432;8.680;2023-03-16T07:00:45;3.90;99.90
10417;DHT22;62605;49.432;8.680;2023-03-16T07:06:24;4.00;99.90
10417;DHT22;62605;49.432;8.680;2023-03-16T07:08:53;4.00;99.90
10417;DHT22;62605;49.432;8.680;2023-03-16T07:11:21;4.10;99.90
10417;DHT22;62605;49.432;8.680;2023-03-16T07:13:50;4.00;99.90
10417;DHT22;62605;49.432;8.680;2023-03-16T07:16:17;3.90;99.90
10417;DHT22;62605;49.432;8.680;2023-03-16T07:18:45;4.00;99.90
10417;DHT22;62605;49.432;8.680;2023-03-16T07:21:12;4.10;99.90
10417;DHT22;62605;49.432;8.680;2023-03-16T07:23:40;4.10;99.90
10417;DHT22;62605;49.432;8.680;2023-03-16T07:26:09;4.20;99.90
10417;DHT22;62605;49.432;8.680;2023-03-16T07:28:40;4.40;99.90
10417;DHT22;62605;49.432;8.680;2023-03-16T07:31:09;4.30;99.90
10417;DHT22;62605;49.432;8.680;2023-03-16T07:33:37;4.50;99.90
10417;DHT22;62605;49.432;8.680;2023-03-16T07:36:05;4.30;99.90
10417;DHT22;62605;49.432;8.680;2023-03-16T07:38:33;4.30;99.90
10417;DHT22;62605;49.432;8.680;2023-03-16T07:41:00;4.30;99.90
10417;DHT22;62605;49.432;8.680;2023-03-16T07:43:27;4.60;99.90
10417;DHT22;62605;49.432;8.680;2023-03-16T07:45:54;4.40;99.90
10417;DHT22;62605;49.432;8.680;2023-03-16T07:48:24;4.40;99.90
10417;DHT22;62605;49.432;8.680;2023-03-16T07:50:51;4.50;99.90
10417;DHT22;62605;49.432;8.680;2023-03-16T07:53:18;4.40;99.90
10417;DHT22;62605;49.432;8.680;2023-03-16T07:55:46;4.50;99.90
10417;DHT22;62605;49.432;8.680;2023-03-16T07:58:13;4.50;99.90
10417;DHT22;62605;49.432;8.680;2023-03-16T08:00:40;4.60;99.90
10417;DHT22;62605;49.432;8.680;2023-03-16T08:03:08;4.60;99.90
10417;DHT22;62605;49.432;8.680;2023-03-16T08:05:37;4.70;1.00
10417;DHT22;62605;49.432;8.680;2023-03-16T08:08:05;4.80;1.00
10417;DHT22;62605;49.432;8.680;2023-03-16T08:10:34;4.80;1.00
10417;DHT22;62605;49.432;8.680;2023-03-16T08:13:02;4.90;1.00
10417;DHT22;62605;49.432;8.680;2023-03-16T08:15:29;5.00;1.00
10417;DHT22;62605;49.432;8.680;2023-03-16T08:17:58;5.10;1.00
10417;DHT22;62605;49.432;8.680;2023-03-16T08:20:27;5.10;1.00
10417;DHT22;62605;49.432;8.680;2023-03-16T08:22:56;5.10;1.00
10417;DHT22;62605;49.432;8.680;2023-03-16T08:25:23;5.20;1.00
10417;DHT22;62605;49.432;8.680;2023-03-16T08:27:51;5.30;1.00
10417;DHT22;62605;49.432;8.680;2023-03-16T08:30:18;5.30;1.00
10417;DHT22;62605;49.432;8.680;2023-03-16T08:32:47;5.50;1.00
10417;DHT22;62605;49.432;8.680;2023-03-16T08:35:15;5.50;1.00
10417;DHT22;62605;49.432;8.680;2023-03-16T08:37:42;5.60;1.00
10417;DHT22;62605;49.432;8.680;2023-03-16T08:40:12;5.70;1.00
10417;DHT22;62605;49.432;8.680;2023-03-16T08:42:41;5.80;1.00
10417;DHT22;62605;49.432;8.680;2023-03-16T08:45:10;5.90;1.00
10417;DHT22;62605;49.432;8.680;2023-03-16T08:47:38;5.90;1.00
10417;DHT22;62605;49.432;8.680;2023-03-16T08:50:06;6.00;1.00
10417;DHT22;62605;49.432;8.680;2023-03-16T08:52:34;6.40;1.00
10417;DHT22;62605;49.432;8.680;2023-03-16T08:55:02;6.50;1.00
10417;DHT22;62605;49.432;8.680;2023-03-16T08:57:32;6.80;1.00
10417;DHT22;62605;49.432;8.680;2023-03-16T08:59:59;6.80;1.00
10417;DHT22;62605;49.432;8.680;2023-03-16T09:02:28;6.70;1.00
10417;DHT22;62605;49.432;8.680;2023-03-16T09:04:56;6.70;1.00
10417;DHT22;62605;49.432;8.680;2023-03-16T09:07:23;6.80;1.00
10417;DHT22;62605;49.432;8.680;2023-03-16T09:09:51;6.90;1.00
10417;DHT22;62605;49.432;8.680;2023-03-16T09:12:20;6.90;1.00
10417;DHT22;62605;49.432;8.680;2023-03-16T09:14:49;7.10;1.00
10417;DHT22;62605;49.432;8.680;2023-03-16T09:17:16;6.90;1.00
10417;DHT22;62605;49.432;8.680;2023-03-16T09:19:45;6.90;1.00
10417;DHT22;62605;49.432;8.680;2023-03-16T09:22:13;7.20;1.00
10417;DHT22;62605;49.432;8.680;2023-03-16T09:24:40;7.00;1.00
10417;DHT22;62605;49.432;8.680;2023-03-16T09:27:07;7.00;1.00
10417;DHT22;62605;49.432;8.680;2023-03-16T09:29:34;7.00;1.00
10417;DHT22;62605;49.432;8.680;2023-03-16T09:32:03;7.10;1.00
10417;DHT22;62605;49.432;8.680;2023-03-16T09:34:31;7.30;1.00
10417;DHT22;62605;49.432;8.680;2023-03-16T09:36:59;7.30;1.00
10417;DHT22;62605;49.432;8.680;2023-03-16T09:39:26;7.20;1.00
10417;DHT22;62605;49.432;8.680;2023-03-16T09:41:56;7.20;1.00
10417;DHT22;62605;49.432;8.680;2023-03-16T09:44:35;7.30;1.00
10417;DHT22;62605;49.432;8.680;2023-03-16T09:47:09;7.30;1.00
10417;DHT22;62605;49.432;8.680;2023-03-16T09:49:39;7.40;1.00
10417;DHT22;62605;49.432;8.680;2023-03-16T09:52:15;7.50;1.00
10417;DHT22;62605;49.432;8.680;2023-03-16T09:54:50;7.40;1.00
10417;DHT22;62605;49.432;8.680;2023-03-16T09:57:24;7.40;1.00
10417;DHT22;62605;49.432;8.680;2023-03-16T09:59:53;7.50;1.00
10417;DHT22;62605;49.432;8.680;2023-03-16T10:02:51;7.50;1.00
10417;DHT22;62605;49.432;8.680;2023-03-16T10:05:22;7.50;1.00
10417;DHT22;62605;49.432;8.680;2023-03-16T10:08:01;7.60;1.00
10417;DHT22;62605;49.432;8.680;2023-03-16T10:13:42;7.90;1.00
10417;DHT22;62605;49.432;8.680;2023-03-16T10:16:15;8.00;1.00
10417;DHT22;62605;49.432;8.680;2023-03-16T10:18:47;8.00;99.90
10417;DHT22;62605;49.432;8.680;2023-03-16T10:21:16;8.20;99.90
10417;DHT22;62605;49.432;8.680;2023-03-16T10:23:46;8.20;99.90
10417;DHT22;62605;49.432;8.680;2023-03-16T10:26:17;8.10;99.90
10417;DHT22;62605;49.432;8.680;2023-03-16T10:28:46;8.10;99.90
10417;DHT22;62605;49.432;8.680;2023-03-16T10:31:16;8.20;99.90
10417;DHT22;62605;49.432;8.680;2023-03-16T10:33:47;8.40;99.90
10417;DHT22;62605;49.432;8.680;2023-03-16T10:36:24;8.50;99.90
10417;DHT22;62605;49.432;8.680;2023-03-16T10:38:52;8.70;99.90
10417;DHT22;62605;49.432;8.680;2023-03-16T10:41:23;8.70;99.90
10417;DHT22;62605;49.432;8.680;2023-03-16T10:43:52;8.70;99.90
10417;DHT22;62605;49.432;8.680;2023-03-16T10:46:22;8.70;99.90
10417;DHT22;62605;49.432;8.680;2023-03-16T10:48:55;9.00;99.90
10417;DHT22;62605;49.432;8.680;2023-03-16T10:51:27;8.90;99.90
10417;DHT22;62605;49.432;8.680;2023-03-16T10:54:07;9.20;99.90
10417;DHT22;62605;49.432;8.680;2023-03-16T10:56:39;9.30;99.90
10417;DHT22;62605;49.432;8.680;2023-03-16T10:59:13;9.40;99.90
10417;DHT22;62605;49.432;8.680;2023-03-16T11:01:44;9.70;99.90
10417;DHT22;62605;49.432;8.680;2023-03-16T11:04:15;9.60;99.90
10417;DHT22;62605;49.432;8.680;2023-03-16T11:06:52;9.60;99.90
10417;DHT22;62605;49.432;8.680;2023-03-16T11:09:23;9.60;99.90
10417;DHT22;62605;49.432;8.680;2023-03-16T11:11:52;9.70;99.90
10417;DHT22;62605;49.432;8.680;2023-03-16T11:14:22;9.80;99.90
10417;DHT22;62605;49.432;8.680;2023-03-16T11:16:58;9.80;99.90
10417;DHT22;62605;49.432;8.680;2023-03-16T11:19:29;10.00;99.90
10417;DHT22;62605;49.432;8.680;2023-03-16T11:22:00;10.10;99.90
10417;DHT22;62605;49.432;8.680;2023-03-16T11:24:33;10.00;99.90
10417;DHT22;62605;49.432;8.680;2023-03-16T11:27:10;10.10;99.90
10417;DHT22;62605;49.432;8.680;2023-03-16T11:29:51;10.20;99.90
10417;DHT22;62605;49.432;8.680;2023-03-16T11:32:26;10.30;99.90
10417;DHT22;62605;49.432;8.680;2023-03-16T11:34:56;10.60;99.90
10417;DHT22;62605;49.432;8.680;2023-03-16T11:37:49;10.60;99.90
10417;DHT22;62605;49.432;8.680;2023-03-16T11:40:35;10.50;99.90
10417;DHT22;62605;49.432;8.680;2023-03-16T11:43:19;10.60;99.90
10417;DHT22;62605;49.432;8.680;2023-03-16T11:46:02;10.50;99.90
10417;DHT22;62605;49.432;8.680;2023-03-16T11:48:36;10.60;99.90
10417;DHT22;62605;49.432;8.680;2023-03-16T11:51:15;10.80;99.90
10417;DHT22;62605;49.432;8.680;2023-03-16T11:53:51;10.90;99.90
10417;DHT22;62605;49.432;8.680;2023-03-16T11:56:29;11.00;99.90
10417;DHT22;62605;49.432;8.680;2023-03-16T11:59:14;11.30;99.90
10417;DHT22;62605;49.432;8.680;2023-03-16T12:01:57;11.50;99.90
10417;DHT22;62605;49.432;8.680;2023-03-16T12:04:46;11.80;99.90
10417;DHT22;62605;49.432;8.680;2023-03-16T12:07:30;11.20;99.90
10417;DHT22;62605;49.432;8.680;2023-03-16T12:12:57;10.90;99.90
10417;DHT22;62605;49.432;8.680;2023-03-16T12:15:38;10.90;99.90
10417;DHT22;62605;49.432;8.680;2023-03-16T12:18:13;11.20;99.90
10417;DHT22;62605;49.432;8.680;2023-03-16T12:20:46;11.10;99.90
10417;DHT22;62605;49.432;8.680;2023-03-16T12:23:19;11.40;99.90
10417;DHT22;62605;49.432;8.680;2023-03-16T12:25:49;11.40;99.90
10417;DHT22;62605;49.432;8.680;2023-03-16T12:28:21;11.80;99.90
10417;DHT22;62605;49.432;8.680;2023-03-16T12:31:06;11.80;99.90
10417;DHT22;62605;49.432;8.680;2023-03-16T12:33:44;11.80;99.90
10417;DHT22;62605;49.432;8.680;2023-03-16T13:18:23;12.30;99.90
10417;DHT22;62605;49.432;8.680;2023-03-16T13:21:12;12.40;99.90
10417;DHT22;62605;49.432;8.680;2023-03-16T13:23:53;12.50;99.90
10417;DHT22;62605;49.432;8.680;2023-03-16T13:26:39;12.50;99.90
10417;DHT22;62605;49.432;8.680;2023-03-16T13:29:20;12.60;99.90
10417;DHT22;62605;49.432;8.680;2023-03-16T13:31:49;12.20;99.90
10417;DHT22;62605;49.432;8.680;2023-03-16T13:34:34;12.40;99.90
10417;DHT22;62605;49.432;8.680;2023-03-16T13:37:03;12.50;99.90
10417;DHT22;62605;49.432;8.680;2023-03-16T13:39:39;12.40;99.90
10417;DHT22;62605;49.432;8.680;2023-03-16T13:42:14;12.80;99.90
10417;DHT22;62605;49.432;8.680;2023-03-16T13:44:43;12.70;99.90
10417;DHT22;62605;49.432;8.680;2023-03-16T13:47:12;12.20;99.90
10417;DHT22;62605;49.432;8.680;2023-03-16T13:49:46;12.40;99.90
10417;DHT22;62605;49.432;8.680;2023-03-16T13:52:19;12.40;99.90
10417;DHT22;62605;49.432;8.680;2023-03-16T13:54:48;12.50;99.00
10417;DHT22;62605;49.432;8.680;2023-03-16T13:57:18;12.70;97.80
10417;DHT22;62605;49.432;8.680;2023-03-16T13:59:46;12.60;95.40
10417;DHT22;62605;49.432;8.680;2023-03-16T14:02:17;12.50;89.90
10417;DHT22;62605;49.432;8.680;2023-03-16T14:04:47;12.30;79.50
10417;DHT22;62605;49.432;8.680;2023-03-16T14:07:16;12.20;71.90
10417;DHT22;62605;49.432;8.680;2023-03-16T14:09:46;12.20;64.30
10417;DHT22;62605;49.432;8.680;2023-03-16T14:12:16;12.30;64.30
10417;DHT22;62605;49.432;8.680;2023-03-16T14:14:47;12.40;62.60
10417;DHT22;62605;49.432;8.680;2023-03-16T14:17:17;12.40;63.10
10417;DHT22;62605;49.432;8.680;2023-03-16T14:19:50;12.50;54.70
10417;DHT22;62605;49.432;8.680;2023-03-16T14:22:19;12.60;50.20
10417;DHT22;62605;49.432;8.680;2023-03-16T14:24:52;12.50;46.90
10417;DHT22;62605;49.432;8.680;2023-03-16T14:27:25;12.50;40.00
10417;DHT22;62605;49.432;8.680;2023-03-16T14:29:59;12.50;39.20
10417;DHT22;62605;49.432;8.680;2023-03-16T14:32:27;12.20;25.80
10417;DHT22;62605;49.432;8.680;2023-03-16T14:35:14;12.20;25.70
10417;DHT22;62605;49.432;8.680;2023-03-16T14:37:43;12.40;25.40
10417;DHT22;62605;49.432;8.680;2023-03-16T14:40:23;12.30;19.20
10417;DHT22;62605;49.432;8.680;2023-03-16T14:42:51;12.40;21.60
10417;DHT22;62605;49.432;8.680;2023-03-16T14:45:19;12.40;16.20
10417;DHT22;62605;49.432;8.680;2023-03-16T14:47:48;12.40;14.10
10417;DHT22;62605;49.432;8.680;2023-03-16T14:50:23;12.20;6.10
10417;DHT22;62605;49.432;8.680;2023-03-16T14:52:53;12.20;1.40
10417;DHT22;62605;49.432;8.680;2023-03-16T14:55:25;12.10;1.00
10417;DHT22;62605;49.432;8.680;2023-03-16T14:57:52;12.20;1.00
10417;DHT22;62605;49.432;8.680;2023-03-16T15:00:23;12.30;1.00
10417;DHT22;62605;49.432;8.680;2023-03-16T15:02:57;12.30;1.00
10417;DHT22;62605;49.432;8.680;2023-03-16T15:05:32;12.40;1.00
10417;DHT22;62605;49.432;8.680;2023-03-16T15:07:59;12.50;1.00
10417;DHT22;62605;49.432;8.680;2023-03-16T15:10:30;12.50;1.00
10417;DHT22;62605;49.432;8.680;2023-03-16T15:12:59;12.60;1.00
10417;DHT22;62605;49.432;8.680;2023-03-16T15:15:39;12.40;1.00
10417;DHT22;62605;49.432;8.680;2023-03-16T15:18:07;12.60;1.00
10417;DHT22;62605;49.432;8.680;2023-03-16T15:20:39;12.50;1.00
10417;DHT22;62605;49.432;8.680;2023-03-16T15:23:11;12.40;1.00
10417;DHT22;62605;49.432;8.680;2023-03-16T15:25:40;12.50;1.00
10417;DHT22;62605;49.432;8.680;2023-03-16T15:28:13;12.40;1.00
10417;DHT22;62605;49.432;8.680;2023-03-16T15:30:42;12.30;1.00
10417;DHT22;62605;49.432;8.680;2023-03-16T15:33:10;12.30;1.00
10417;DHT22;62605;49.432;8.680;2023-03-16T15:35:39;12.40;1.00
10417;DHT22;62605;49.432;8.680;2023-03-16T15:38:10;12.20;1.00
10417;DHT22;62605;49.432;8.680;2023-03-16T15:40:41;12.10;1.00
10417;DHT22;62605;49.432;8.680;2023-03-16T15:43:11;12.20;1.00
10417;DHT22;62605;49.432;8.680;2023-03-16T15:45:38;12.10;1.00
10417;DHT22;62605;49.432;8.680;2023-03-16T15:48:06;12.10;1.00
10417;DHT22;62605;49.432;8.680;2023-03-16T15:50:33;12.20;1.00
10417;DHT22;62605;49.432;8.680;2023-03-16T15:53:06;12.20;1.00
10417;DHT22;62605;49.432;8.680;2023-03-16T15:55:35;12.20;1.00
10417;DHT22;62605;49.432;8.680;2023-03-16T15:58:04;12.20;1.00
10417;DHT22;62605;49.432;8.680;2023-03-16T16:00:33;12.10;1.00
10417;DHT22;62605;49.432;8.680;2023-03-16T16:03:01;12.00;1.00
10417;DHT22;62605;49.432;8.680;2023-03-16T16:05:29;12.00;1.00
10417;DHT22;62605;49.432;8.680;2023-03-16T16:07:57;11.90;1.00
10417;DHT22;62605;49.432;8.680;2023-03-16T16:10:26;11.90;1.00
10417;DHT22;62605;49.432;8.680;2023-03-16T16:12:54;12.00;1.00
10417;DHT22;62605;49.432;8.680;2023-03-16T16:15:23;12.00;1.00
10417;DHT22;62605;49.432;8.680;2023-03-16T16:17:52;11.80;1.00
10417;DHT22;62605;49.432;8.680;2023-03-16T16:20:22;11.90;1.00
10417;DHT22;62605;49.432;8.680;2023-03-16T16:22:51;11.90;1.00
10417;DHT22;62605;49.432;8.680;2023-03-16T16:25:20;11.70;1.00
10417;DHT22;62605;49.432;8.680;2023-03-16T16:27:50;11.70;1.00
10417;DHT22;62605;49.432;8.680;2023-03-16T16:30:20;11.70;1.00
10417;DHT22;62605;49.432;8.680;2023-03-16T16:32:48;11.70;1.00
10417;DHT22;62605;49.432;8.680;2023-03-16T16:35:17;11.60;1.00
10417;DHT22;62605;49.432;8.680;2023-03-16T16:37:44;11.60;1.00
10417;DHT22;62605;49.432;8.680;2023-03-16T16:40:16;11.50;1.00
10417;DHT22;62605;49.432;8.680;2023-03-16T16:42:45;11.30;1.00
10417;DHT22;62605;49.432;8.680;2023-03-16T16:45:19;11.30;1.00
10417;DHT22;62605;49.432;8.680;2023-03-16T16:47:48;11.30;1.00
10417;DHT22;62605;49.432;8.680;2023-03-16T16:50:19;11.30;1.00
10417;DHT22;62605;49.432;8.680;2023-03-16T16:52:48;11.20;1.00
10417;DHT22;62605;49.432;8.680;2023-03-16T16:55:16;11.20;1.00
10417;DHT22;62605;49.432;8.680;2023-03-16T16:57:44;11.10;1.00
10417;DHT22;62605;49.432;8.680;2023-03-16T17:00:20;11.10;1.00
10417;DHT22;62605;49.432;8.680;2023-03-16T17:02:49;10.90;1.00
10417;DHT22;62605;49.432;8.680;2023-03-16T17:05:19;10.90;1.00
10417;DHT22;62605;49.432;8.680;2023-03-16T17:07:47;10.90;1.00
10417;DHT22;62605;49.432;8.680;2023-03-16T17:10:16;10.90;1.00
10417;DHT22;62605;49.432;8.680;2023-03-16T17:12:44;10.90;1.00
10417;DHT22;62605;49.432;8.680;2023-03-16T17:15:28;10.70;1.00
10417;DHT22;62605;49.432;8.680;2023-03-16T17:18:00;10.70;1.00
10417;DHT22;62605;49.432;8.680;2023-03-16T17:20:27;10.60;1.00
10417;DHT22;62605;49.432;8.680;2023-03-16T17:22:55;10.40;1.00
10417;DHT22;62605;49.432;8.680;2023-03-16T17:25:23;10.50;1.00
10417;DHT22;62605;49.432;8.680;2023-03-16T17:27:53;10.40;1.00
10417;DHT22;62605;49.432;8.680;2023-03-16T17:30:25;10.40;1.00
10417;DHT22;62605;49.432;8.680;2023-03-16T17:32:59;10.40;1.00
10417;DHT22;62605;49.432;8.680;2023-03-16T17:35:28;10.40;1.00
10417;DHT22;62605;49.432;8.680;2023-03-16T17:37:55;10.40;1.00
10417;DHT22;62605;49.432;8.680;2023-03-16T17:40:23;10.30;1.00
10417;DHT22;62605;49.432;8.680;2023-03-16T17:42:52;10.20;1.00
10417;DHT22;62605;49.432;8.680;2023-03-16T17:45:23;10.10;1.00
10417;DHT22;62605;49.432;8.680;2023-03-16T17:47:51;10.10;1.00
10417;DHT22;62605;49.432;8.680;2023-03-16T17:50:23;10.10;1.00
10417;DHT22;62605;49.432;8.680;2023-03-16T17:52:53;10.20;1.00
10417;DHT22;62605;49.432;8.680;2023-03-16T17:55:30;10.20;1.00
10417;DHT22;62605;49.432;8.680;2023-03-16T17:57:58;10.10;1.00
10417;DHT22;62605;49.432;8.680;2023-03-16T18:00:28;10.10;1.00
10417;DHT22;62605;49.432;8.680;2023-03-16T18:02:58;9.90;1.00
10417;DHT22;62605;49.432;8.680;2023-03-16T18:05:33;10.00;1.00
10417;DHT22;62605;49.432;8.680;2023-03-16T18:08:11;10.00;1.00
10417;DHT22;62605;49.432;8.680;2023-03-16T18:10:39;10.00;1.00
10417;DHT22;62605;49.432;8.680;2023-03-16T18:13:11;10.00;1.00
10417;DHT22;62605;49.432;8.680;2023-03-16T18:15:41;10.00;1.00
10417;DHT22;62605;49.432;8.680;2023-03-16T18:18:14;9.90;1.00
10417;DHT22;62605;49.432;8.680;2023-03-16T18:20:44;10.00;1.00
10417;DHT22;62605;49.432;8.680;2023-03-16T18:23:15;10.00;1.00
10417;DHT22;62605;49.432;8.680;2023-03-16T18:25:43;10.00;1.00
10417;DHT22;62605;49.432;8.680;2023-03-16T18:28:11;10.00;1.00
10417;DHT22;62605;49.432;8.680;2023-03-16T18:30:42;10.10;1.00
10417;DHT22;62605;49.432;8.680;2023-03-16T18:33:20;10.00;1.00
10417;DHT22;62605;49.432;8.680;2023-03-16T18:35:54;10.10;1.00
10417;DHT22;62605;49.432;8.680;2023-03-16T18:38:26;10.00;1.00
10417;DHT22;62605;49.432;8.680;2023-03-16T18:40:55;10.00;1.00
10417;DHT22;62605;49.432;8.680;2023-03-16T18:43:23;10.10;1.00
10417;DHT22;62605;49.432;8.680;2023-03-16T18:45:50;10.10;1.00
10417;DHT22;62605;49.432;8.680;2023-03-16T18:48:26;10.10;1.00
10417;DHT22;62605;49.432;8.680;2023-03-16T18:50:57;9.90;1.00
10417;DHT22;62605;49.432;8.680;2023-03-16T18:53:24;10.00;1.00
10417;DHT22;62605;49.432;8.680;2023-03-16T18:55:52;10.10;1.00
10417;DHT22;62605;49.432;8.680;2023-03-16T18:58:22;9.90;1.00
10417;DHT22;62605;49.432;8.680;2023-03-16T19:00:52;9.80;1.00
10417;DHT22;62605;49.432;8.680;2023-03-16T19:03:25;9.90;1.00
10417;DHT22;62605;49.432;8.680;2023-03-16T19:05:56;9.90;1.00
10417;DHT22;62605;49.432;8.680;2023-03-16T19:08:26;10.00;1.00
10417;DHT22;62605;49.432;8.680;2023-03-16T19:10:55;9.90;1.00
10417;DHT22;62605;49.432;8.680;2023-03-16T19:13:24;9.90;1.00
10417;DHT22;62605;49.432;8.680;2023-03-16T19:15:53;9.80;1.00
10417;DHT22;62605;49.432;8.680;2023-03-16T19:18:22;9.90;1.00
10417;DHT22;62605;49.432;8.680;2023-03-16T19:20:52;9.70;1.00